Time;durP1;ratioP1;P1;durP2;ratioP2;P2;SDS_P1;SDS_P2;PMS_P1;PMS_P2;Temp;Humidity;BMP_temperature;BMP_pressure;BME280_temperature;BME280_humidity;BME280_pressure;Samples;Min_cycle;Max_cycle;Signal;HPM_P1;HPM_P2
2022/03/05 00:01:55;;;;;;;5.78;2.40;;;;;;;0.48;63.55;100190.84;1685759;85;21051;-60
2022/03/05 00:04:25;;;;;;;4.05;2.60;;;;;;;0.50;63.45;100189.35;1710330;84;21020;-60
2022/03/05 00:06:55;;;;;;;4.80;2.80;;;;;;;0.48;63.43;100187.29;1685855;85;21046;-60
2022/03/05 00:09:26;;;;;;;3.30;2.33;;;;;;;0.46;63.46;100186.58;1709942;84;21055;-61
2022/03/05 00:11:56;;;;;;;3.92;2.20;;;;;;;0.45;63.55;100184.88;1685351;85;21660;-61
2022/03/05 00:14:26;;;;;;;4.97;2.60;;;;;;;0.43;63.35;100193.59;1740502;82;21464;-60
2022/03/05 00:16:55;;;;;;;4.30;2.50;;;;;;;0.41;63.49;100182.95;1705004;84;21035;-60
2022/03/05 00:19:25;;;;;;;3.67;2.45;;;;;;;0.39;63.37;100190.31;1740508;82;21459;-59
2022/03/05 00:21:57;;;;;;;4.33;2.25;;;;;;;0.41;63.25;100182.09;1740483;82;21027;-61
2022/03/05 00:24:27;;;;;;;4.83;2.40;;;;;;;0.41;62.93;100186.14;1705118;83;21027;-61
2022/03/05 00:26:56;;;;;;;5.67;2.02;;;;;;;0.38;62.60;100186.41;1740571;82;21051;-60
2022/03/05 00:29:27;;;;;;;4.47;2.22;;;;;;;0.33;62.51;100182.79;1740538;82;21071;-60
2022/03/05 00:31:57;;;;;;;2.70;2.00;;;;;;;0.31;62.33;100186.11;1704915;84;21553;-60
2022/03/05 00:34:26;;;;;;;4.67;1.98;;;;;;;0.26;62.18;100189.22;1705150;84;21078;-60
2022/03/05 00:36:55;;;;;;;2.85;2.02;;;;;;;0.23;62.08;100185.45;1740390;82;21051;-61
2022/03/05 00:39:26;;;;;;;4.37;2.00;;;;;;;0.17;62.15;100183.31;1704971;84;21035;-60
2022/03/05 00:41:56;;;;;;;3.08;1.80;;;;;;;0.17;62.40;100180.61;1740429;82;21058;-59
2022/03/05 00:44:25;;;;;;;3.35;1.95;;;;;;;0.19;62.51;100180.48;1740478;82;21458;-61
2022/03/05 00:46:56;;;;;;;3.30;2.15;;;;;;;0.19;62.51;100179.98;1705287;84;21032;-60
2022/03/05 00:49:25;;;;;;;4.70;2.00;;;;;;;0.22;62.55;100178.85;1740730;82;21023;-60
2022/03/05 00:51:56;;;;;;;3.75;2.02;;;;;;;0.23;62.50;100176.52;1704958;83;21075;-61
2022/03/05 00:54:26;;;;;;;4.03;1.92;;;;;;;0.24;62.51;100181.77;1740645;82;21099;-61
2022/03/05 00:56:57;;;;;;;3.42;2.12;;;;;;;0.23;62.45;100188.14;1740756;82;21019;-59
2022/03/05 00:59:27;;;;;;;4.15;2.12;;;;;;;0.20;62.50;100183.03;1740665;82;21443;-60
2022/03/05 01:01:58;;;;;;;3.12;1.90;;;;;;;0.23;62.58;100178.72;1740715;82;21130;-60
2022/03/05 01:04:28;;;;;;;3.27;1.90;;;;;;;0.25;62.31;100184.82;1740548;82;21074;-60
2022/03/05 01:06:59;;;;;;;3.72;1.90;;;;;;;0.27;62.08;100177.45;1740737;82;20983;-60
2022/03/05 01:09:29;;;;;;;3.02;1.60;;;;;;;0.26;62.03;100181.14;1740651;82;20983;-60
2022/03/05 01:11:59;;;;;;;3.05;1.60;;;;;;;0.25;62.01;100185.31;1740582;82;21059;-60
2022/03/05 01:14:30;;;;;;;3.95;1.75;;;;;;;0.24;62.07;100183.61;1748429;82;21112;-61
2022/03/05 01:16:59;;;;;;;2.70;1.60;;;;;;;0.22;61.92;100181.55;1703374;84;21027;-60
2022/03/05 01:19:32;;;;;;;2.87;1.60;;;;;;;0.19;62.10;100184.02;1703590;84;20987;-59
2022/03/05 01:22:02;;;;;;;2.15;1.47;;;;;;;0.21;62.14;100181.19;1703093;84;21031;-60
2022/03/05 01:24:32;;;;;;;2.27;1.45;;;;;;;0.18;62.32;100181.47;1703223;84;21470;-60
2022/03/05 01:27:01;;;;;;;2.42;1.35;;;;;;;0.19;62.40;100173.25;1689200;84;21078;-60
2022/03/05 01:29:31;;;;;;;4.72;1.52;;;;;;;0.20;62.34;100176.30;1703422;83;21038;-59
2022/03/05 01:32:01;;;;;;;2.95;1.52;;;;;;;0.20;62.37;100173.61;1703247;84;21055;-60
2022/03/05 01:34:31;;;;;;;3.00;1.70;;;;;;;0.19;62.41;100175.94;1703247;84;21170;-60
2022/03/05 01:37:01;;;;;;;3.75;1.75;;;;;;;0.19;62.50;100174.59;1703106;84;21642;-61
2022/03/05 01:39:30;;;;;;;2.83;1.50;;;;;;;0.22;62.59;100175.66;1703110;83;21071;-59
2022/03/05 01:42:01;;;;;;;2.47;1.35;;;;;;;0.24;62.60;100179.57;1703383;84;21066;-60
2022/03/05 01:44:31;;;;;;;2.92;1.40;;;;;;;0.25;62.61;100180.78;1703209;83;21058;-59
2022/03/05 01:47:04;;;;;;;2.85;1.60;;;;;;;0.25;62.66;100181.28;1703200;84;21030;-60
2022/03/05 01:49:34;;;;;;;2.83;1.45;;;;;;;0.24;62.67;100180.42;1703170;84;21074;-61
2022/03/05 01:52:05;;;;;;;2.12;1.30;;;;;;;0.25;62.65;100186.17;1703326;84;21051;-59
2022/03/05 01:54:34;;;;;;;2.92;1.47;;;;;;;0.25;62.77;100188.86;1703001;83;21504;-61
2022/03/05 01:57:05;;;;;;;3.33;1.30;;;;;;;0.26;62.90;100185.67;1703209;84;21058;-61
2022/03/05 01:59:34;;;;;;;3.47;1.57;;;;;;;0.27;62.85;100184.19;1703231;84;21530;-61
2022/03/05 02:02:04;;;;;;;2.77;1.35;;;;;;;0.29;62.92;100185.40;1703178;83;21439;-59
2022/03/05 02:04:34;;;;;;;2.77;1.45;;;;;;;0.30;62.99;100189.30;1703077;84;21080;-60
2022/03/05 02:07:04;;;;;;;3.00;1.45;;;;;;;0.28;62.94;100186.39;1703139;83;21034;-61
2022/03/05 02:09:34;;;;;;;2.27;1.45;;;;;;;0.29;62.94;100185.40;1703303;83;21003;-60
2022/03/05 02:12:04;;;;;;;2.37;1.55;;;;;;;0.31;63.01;100189.66;1703115;83;21035;-60
2022/03/05 02:14:33;;;;;;;1.92;1.25;;;;;;;0.31;62.91;100191.01;1709390;83;21531;-61
2022/03/05 02:17:04;;;;;;;2.20;1.47;;;;;;;0.33;62.97;100179.23;1745978;82;21019;-60
2022/03/05 02:19:35;;;;;;;2.72;1.42;;;;;;;0.35;62.92;100194.77;1745641;82;21019;-60
2022/03/05 02:22:06;;;;;;;2.35;1.50;;;;;;;0.37;62.88;100197.69;1746095;82;21034;-60
2022/03/05 02:24:37;;;;;;;2.67;1.30;;;;;;;0.38;62.93;100193.16;1746224;82;21078;-59
2022/03/05 02:27:07;;;;;;;2.33;1.40;;;;;;;0.36;62.94;100193.29;1745587;82;21019;-60
2022/03/05 02:29:37;;;;;;;2.15;1.30;;;;;;;0.35;63.05;100192.08;1745849;82;21067;-62
2022/03/05 02:32:07;;;;;;;2.98;1.40;;;;;;;0.35;62.93;100192.94;1745976;82;21483;-60
2022/03/05 02:34:37;;;;;;;2.30;1.45;;;;;;;0.35;62.94;100198.81;1745865;82;21051;-60
2022/03/05 02:37:13;;;;;;;2.25;1.40;;;;;;;0.35;62.93;100206.41;1745891;82;21047;-60
2022/03/05 02:39:43;;;;;;;2.17;1.30;;;;;;;0.37;62.99;100204.43;1746065;82;21094;-60
2022/03/05 02:42:15;;;;;;;2.52;1.70;;;;;;;0.36;62.88;100200.52;1745842;82;21423;-58
2022/03/05 02:44:45;;;;;;;1.85;1.30;;;;;;;0.35;62.89;100202.36;1746017;82;21062;-61
2022/03/05 02:47:16;;;;;;;2.27;1.50;;;;;;;0.34;62.77;100198.45;1745881;82;21018;-59
2022/03/05 02:49:46;;;;;;;3.60;1.70;;;;;;;0.32;62.82;100201.30;1745963;82;21047;-60
2022/03/05 02:52:21;;;;;;;2.10;1.47;;;;;;;0.34;63.00;100214.63;1745724;82;21062;-61
2022/03/05 02:54:51;;;;;;;1.80;1.42;;;;;;;0.33;62.91;100216.47;1745858;82;20999;-60
2022/03/05 02:57:21;;;;;;;2.05;1.30;;;;;;;0.32;62.96;100212.06;1745764;81;21027;-59
2022/03/05 02:59:49;;;;;;;2.20;1.60;;;;;;;0.31;63.00;100208.52;1745774;82;21018;-61
2022/03/05 03:02:21;;;;;;;2.15;1.67;;;;;;;0.29;63.03;100199.72;1746104;81;21031;-60
2022/03/05 03:04:51;;;;;;;2.72;1.42;;;;;;;0.30;63.09;100197.88;1746045;82;21023;-60
2022/03/05 03:07:21;;;;;;;2.42;1.60;;;;;;;0.31;63.04;100200.44;1745837;82;21058;-60
2022/03/05 03:09:50;;;;;;;2.08;1.40;;;;;;;0.34;63.11;100210.59;1745784;82;21027;-60
2022/03/05 03:12:20;;;;;;;2.77;1.72;;;;;;;0.35;63.17;100214.98;1745891;82;21078;-60
2022/03/05 03:14:52;;;;;;;3.95;1.77;;;;;;;0.35;63.27;100219.03;1649607;86;21529;-59
2022/03/05 03:17:23;;;;;;;2.33;1.50;;;;;;;0.36;63.22;100220.73;1649042;87;21074;-60
2022/03/05 03:19:53;;;;;;;3.55;2.00;;;;;;;0.36;63.23;100222.08;1648980;87;21111;-61
2022/03/05 03:22:23;;;;;;;2.45;1.62;;;;;;;0.36;63.34;100223.43;1648842;87;21075;-60
2022/03/05 03:24:53;;;;;;;3.65;2.12;;;;;;;0.36;63.41;100221.59;1648965;87;21070;-60
2022/03/05 03:27:22;;;;;;;2.75;1.80;;;;;;;0.40;63.34;100227.55;1648797;87;21054;-60
2022/03/05 03:29:52;;;;;;;2.87;1.95;;;;;;;0.39;63.24;100233.94;1648876;86;21123;-61
2022/03/05 03:32:21;;;;;;;2.70;1.60;;;;;;;0.36;63.39;100226.13;1665749;83;21074;-60
2022/03/05 03:34:50;;;;;;;3.25;2.02;;;;;;;0.35;63.40;100230.66;1693415;85;21030;-60
2022/03/05 03:37:19;;;;;;;2.95;1.85;;;;;;;0.37;63.46;100230.52;1693698;85;21031;-61
2022/03/05 03:39:49;;;;;;;3.40;2.00;;;;;;;0.37;63.38;100227.33;1693537;85;21027;-61
2022/03/05 03:42:19;;;;;;;4.25;1.90;;;;;;;0.37;63.40;100235.91;1728565;83;20995;-61
2022/03/05 03:44:49;;;;;;;2.95;2.10;;;;;;;0.38;63.39;100238.47;1693725;84;21031;-60
2022/03/05 03:47:19;;;;;;;4.17;2.00;;;;;;;0.41;63.37;100242.73;1728527;83;21447;-61
2022/03/05 03:49:48;;;;;;;3.10;2.02;;;;;;;0.39;63.17;100246.06;1693467;85;21027;-60
2022/03/05 03:52:18;;;;;;;2.10;1.40;;;;;;;0.36;63.20;100242.30;1728510;83;21447;-59
2022/03/05 03:54:49;;;;;;;2.33;1.60;;;;;;;0.35;63.18;100240.09;1728536;83;21093;-60
2022/03/05 03:57:18;;;;;;;3.52;1.42;;;;;;;0.34;62.99;100248.31;1693768;85;21047;-59
2022/03/05 03:59:51;;;;;;;2.17;1.30;;;;;;;0.31;63.03;100248.94;1728459;83;21447;-59
2022/03/05 04:02:21;;;;;;;3.12;1.50;;;;;;;0.32;62.98;100241.71;1693544;85;21306;-61
2022/03/05 04:04:51;;;;;;;3.08;1.40;;;;;;;0.33;63.05;100239.87;1728581;83;21471;-60
2022/03/05 04:10:11;;;;;;;1.62;1.02;;;;;;;0.33;63.12;100244.77;1693428;85;21440;-60
2022/03/05 04:12:40;;;;;;;1.70;1.10;;;;;;;0.34;63.14;100246.97;1728466;83;21058;-59
2022/03/05 04:15:11;;;;;;;1.62;1.20;;;;;;;0.35;63.20;100259.45;1707640;84;21039;-60
2022/03/05 04:17:40;;;;;;;1.52;1.10;;;;;;;0.36;63.25;100252.58;1710334;84;21032;-60
2022/03/05 04:20:12;;;;;;;1.12;0.98;;;;;;;0.37;63.12;100254.28;1745812;82;21027;-60
2022/03/05 04:22:41;;;;;;;1.22;0.93;;;;;;;0.38;62.96;100256.48;1745651;82;21011;-60
2022/03/05 04:25:11;;;;;;;1.60;1.00;;;;;;;0.38;62.89;100260.52;1746083;82;21059;-60
2022/03/05 04:27:41;;;;;;;1.62;1.00;;;;;;;0.38;62.84;100255.13;1745969;82;21083;-60
2022/03/05 04:30:11;;;;;;;1.55;0.90;;;;;;;0.37;62.67;100262.86;1745608;82;21475;-59
2022/03/05 04:32:44;;;;;;;1.77;0.90;;;;;;;0.35;62.70;100263.00;1680224;85;21067;-61
2022/03/05 04:35:14;;;;;;;1.00;0.80;;;;;;;0.35;62.77;100265.69;1647247;87;21137;-61
2022/03/05 04:37:46;;;;;;;1.12;0.80;;;;;;;0.36;62.58;100269.23;1680399;85;21046;-61
2022/03/05 04:40:16;;;;;;;1.35;0.80;;;;;;;0.36;62.47;100267.39;1647374;87;21106;-59
2022/03/05 04:42:46;;;;;;;1.35;0.90;;;;;;;0.37;62.32;100273.64;1680727;85;21043;-60
2022/03/05 04:45:15;;;;;;;1.30;0.80;;;;;;;0.35;62.27;100267.53;1647383;86;21087;-60
2022/03/05 04:47:45;;;;;;;2.12;1.00;;;;;;;0.36;62.36;100284.91;1680327;85;21090;-60
2022/03/05 04:50:15;;;;;;;3.08;1.25;;;;;;;0.36;62.32;100288.10;1662164;84;21039;-61
2022/03/05 04:52:45;;;;;;;1.85;0.90;;;;;;;0.37;62.17;100288.46;1685922;85;21078;-62
2022/03/05 04:55:15;;;;;;;1.57;0.80;;;;;;;0.35;62.18;100287.74;1710203;84;21095;-61
2022/03/05 04:57:44;;;;;;;2.60;0.98;;;;;;;0.36;62.16;100288.10;1685734;85;21114;-61
2022/03/05 05:00:15;;;;;;;1.02;0.70;;;;;;;0.35;62.01;100291.78;1710183;84;21031;-61
2022/03/05 05:02:45;;;;;;;0.80;0.72;;;;;;;0.34;61.99;100298.16;1685749;85;21067;-61
2022/03/05 05:05:16;;;;;;;2.08;1.00;;;;;;;0.34;62.14;100302.20;1710459;84;21090;-58
2022/03/05 05:07:46;;;;;;;1.35;0.90;;;;;;;0.34;62.05;100303.55;1685601;85;21039;-61
2022/03/05 05:10:16;;;;;;;3.02;0.95;;;;;;;0.36;62.18;100311.86;1710309;84;21310;-62
2022/03/05 05:12:46;;;;;;;1.37;0.82;;;;;;;0.35;62.20;100306.61;1598907;90;21116;-60
2022/03/05 05:15:16;;;;;;;2.58;0.90;;;;;;;0.38;62.14;100314.42;1656190;86;21046;-60
2022/03/05 05:17:47;;;;;;;1.75;1.07;;;;;;;0.38;62.20;100311.73;1625008;88;21086;-60
2022/03/05 05:20:17;;;;;;;2.20;1.00;;;;;;;0.38;62.20;100313.92;1625023;88;21063;-60
2022/03/05 05:22:46;;;;;;;0.80;0.80;;;;;;;0.42;62.17;100325.29;1625075;88;21031;-59
2022/03/05 05:25:16;;;;;;;1.07;0.80;;;;;;;0.44;62.18;100331.40;1625028;88;21471;-61
2022/03/05 05:27:45;;;;;;;1.90;1.10;;;;;;;0.46;62.15;100334.81;1625336;88;20984;-59
2022/03/05 05:30:14;;;;;;;1.77;0.90;;;;;;;0.46;62.03;100331.63;1625496;88;21011;-60
2022/03/05 05:32:43;;;;;;;2.33;0.90;;;;;;;0.47;62.02;100331.98;1625365;88;21050;-61
2022/03/05 05:35:11;;;;;;;2.05;0.98;;;;;;;0.49;62.10;100336.74;1625452;88;21036;-60
2022/03/05 05:37:40;;;;;;;2.05;1.10;;;;;;;0.51;62.01;100336.61;1679884;84;20960;-60
2022/03/05 05:40:10;;;;;;;2.05;1.10;;;;;;;0.51;61.84;100336.61;1687567;85;21380;-60
2022/03/05 05:42:40;;;;;;;2.05;0.90;;;;;;;0.51;61.77;100338.81;1715025;83;20979;-60
2022/03/05 05:45:09;;;;;;;1.32;0.85;;;;;;;0.51;61.73;100340.16;1687625;85;20995;-59
2022/03/05 05:47:38;;;;;;;1.00;0.90;;;;;;;0.53;61.90;100342.72;1714922;84;20971;-60
2022/03/05 05:50:08;;;;;;;1.75;0.93;;;;;;;0.55;61.86;100342.09;1687549;85;20999;-60
2022/03/05 05:52:38;;;;;;;1.77;1.02;;;;;;;0.56;61.88;100342.45;1715111;84;20984;-60
2022/03/05 05:55:07;;;;;;;2.62;0.90;;;;;;;0.56;61.96;100351.89;1687613;85;21412;-60
2022/03/05 05:57:37;;;;;;;1.40;0.90;;;;;;;0.56;61.88;100349.19;1714834;84;20976;-60
2022/03/05 06:00:08;;;;;;;1.60;1.05;;;;;;;0.58;61.90;100349.91;1687548;85;21015;-60
2022/03/05 06:06:37;;;;;;;2.05;0.90;;;;;;;0.61;61.95;100359.92;1829993;77;22097;-61
2022/03/05 06:09:07;;;;;;;1.10;0.80;;;;;;;0.58;61.90;100366.08;1788621;80;21107;-61
2022/03/05 06:11:38;;;;;;;1.95;0.98;;;;;;;0.60;61.78;100355.52;1788834;80;21102;-62
2022/03/05 06:14:10;;;;;;;2.20;1.00;;;;;;;0.59;61.83;100361.91;1788682;80;21134;-61
2022/03/05 06:16:42;;;;;;;1.75;0.95;;;;;;;0.60;61.85;100376.23;1788969;80;21107;-60
2022/03/05 06:19:13;;;;;;;0.85;0.75;;;;;;;0.61;61.83;100373.91;1788610;80;21546;-59
2022/03/05 06:21:42;;;;;;;2.30;0.80;;;;;;;0.62;61.78;100374.27;1788814;80;21095;-62
2022/03/05 06:24:11;;;;;;;1.30;0.72;;;;;;;0.63;61.58;100380.86;1788822;80;21127;-60
2022/03/05 06:26:41;;;;;;;1.32;0.95;;;;;;;0.62;61.57;100382.34;1788615;80;21154;-60
2022/03/05 06:29:11;;;;;;;1.85;0.90;;;;;;;0.61;61.36;100381.98;1788800;80;21150;-60
2022/03/05 06:31:41;;;;;;;1.25;0.88;;;;;;;0.62;61.35;100375.61;1788800;80;21142;-60
2022/03/05 06:34:11;;;;;;;3.12;0.93;;;;;;;0.64;61.47;100391.16;1788573;80;21605;-59
2022/03/05 06:36:41;;;;;;;1.00;0.62;;;;;;;0.66;61.39;100391.05;1788610;80;21107;-61
2022/03/05 06:39:09;;;;;;;2.70;0.70;;;;;;;0.69;61.37;100392.98;1788644;80;21123;-61
2022/03/05 06:41:40;;;;;;;0.70;0.70;;;;;;;0.72;61.32;100395.91;1788619;80;21177;-61
2022/03/05 06:44:10;;;;;;;1.55;0.78;;;;;;;0.74;61.14;100397.48;1788605;80;21147;-61
2022/03/05 06:46:40;;;;;;;1.62;0.75;;;;;;;0.74;60.85;100402.87;1788754;80;21139;-62
2022/03/05 06:49:10;;;;;;;2.15;1.07;;;;;;;0.75;60.55;100399.19;1788752;80;21178;-60
2022/03/05 06:51:40;;;;;;;1.60;0.72;;;;;;;0.75;60.39;100399.69;1788583;80;21167;-59
2022/03/05 06:54:10;;;;;;;5.65;0.93;;;;;;;0.75;60.33;100405.93;1788965;80;21424;-61
2022/03/05 06:56:40;;;;;;;5.83;0.77;;;;;;;0.75;60.29;100412.67;1788703;80;21151;-60
2022/03/05 06:59:09;;;;;;;0.85;0.42;;;;;;;0.77;60.26;100409.84;1788776;80;21099;-61
2022/03/05 07:01:41;;;;;;;1.05;0.80;;;;;;;0.77;59.90;100412.05;1788450;80;21147;-61
2022/03/05 07:04:11;;;;;;;1.87;0.82;;;;;;;0.78;59.88;100409.70;1788817;80;21099;-60
2022/03/05 07:06:41;;;;;;;5.28;1.00;;;;;;;0.78;59.79;100408.85;1788878;80;21079;-61
2022/03/05 07:09:10;;;;;;;3.67;1.00;;;;;;;0.80;59.90;100409.08;1788869;80;21546;-61
2022/03/05 07:11:41;;;;;;;1.57;0.70;;;;;;;0.83;59.79;100412.00;1788921;80;21131;-62
2022/03/05 07:14:11;;;;;;;0.70;0.70;;;;;;;0.85;59.74;100416.77;1789198;80;21142;-61
2022/03/05 07:16:40;;;;;;;0.90;0.70;;;;;;;0.86;59.68;100415.77;1788644;80;21146;-61
2022/03/05 07:19:09;;;;;;;2.08;0.80;;;;;;;0.85;59.47;100418.97;1788339;80;21769;-60
2022/03/05 07:21:43;;;;;;;1.40;0.70;;;;;;;0.85;59.66;100419.45;1788224;80;21609;-61
2022/03/05 07:24:13;;;;;;;4.30;1.00;;;;;;;0.86;59.58;100419.33;1788616;80;21135;-61
2022/03/05 07:26:42;;;;;;;2.47;1.07;;;;;;;0.87;59.50;100429.12;1788514;80;21138;-61
2022/03/05 07:29:12;;;;;;;1.00;0.62;;;;;;;0.91;59.49;100425.66;1788419;80;21111;-60
2022/03/05 07:31:42;;;;;;;1.82;0.70;;;;;;;0.92;59.49;100424.17;1788211;80;21135;-59
2022/03/05 07:34:13;;;;;;;1.20;0.68;;;;;;;0.98;59.39;100437.61;1788182;79;21539;-61
2022/03/05 07:36:42;;;;;;;1.52;1.00;;;;;;;1.02;59.05;100429.61;1788235;80;21130;-60
2022/03/05 07:39:12;;;;;;;1.40;0.65;;;;;;;1.02;58.74;100428.76;1788341;80;21551;-61
2022/03/05 07:41:41;;;;;;;1.15;0.60;;;;;;;1.02;58.63;100432.31;1788333;80;21123;-60
2022/03/05 07:44:11;;;;;;;2.12;0.70;;;;;;;1.01;58.58;100429.75;1788546;80;21111;-60
2022/03/05 07:46:39;;;;;;;2.77;0.95;;;;;;;1.03;58.63;100431.31;1788358;80;21151;-62
2022/03/05 07:49:09;;;;;;;1.45;0.70;;;;;;;1.05;58.48;100431.18;1788525;80;21552;-62
2022/03/05 07:51:38;;;;;;;1.17;0.60;;;;;;;1.05;58.40;100431.18;1788075;80;21139;-61
2022/03/05 07:54:08;;;;;;;2.40;0.60;;;;;;;1.06;58.47;100433.75;1788521;80;21115;-60
2022/03/05 07:56:37;;;;;;;5.08;0.85;;;;;;;1.09;58.42;100432.63;1788273;80;21130;-61
2022/03/05 07:59:07;;;;;;;0.88;0.53;;;;;;;1.10;58.23;100430.28;1788522;80;21119;-62
2022/03/05 08:01:37;;;;;;;1.10;0.60;;;;;;;1.09;58.26;100436.17;1788168;80;21111;-62
2022/03/05 08:04:09;;;;;;;0.60;0.60;;;;;;;1.11;58.25;100435.54;1788007;80;21075;-61
2022/03/05 08:06:38;;;;;;;1.95;0.70;;;;;;;1.13;58.27;100438.95;1788112;79;21147;-60
2022/03/05 08:09:09;;;;;;;2.70;1.12;;;;;;;1.14;58.12;100433.92;1788494;80;21531;-61
2022/03/05 08:11:40;;;;;;;1.02;0.82;;;;;;;1.16;58.20;100435.12;1788356;80;21170;-60
2022/03/05 08:14:10;;;;;;;0.80;0.55;;;;;;;1.21;58.16;100443.17;1788587;80;21150;-62
2022/03/05 08:16:40;;;;;;;9.60;1.02;;;;;;;1.23;58.06;100441.69;1788492;80;21562;-61
2022/03/05 08:19:09;;;;;;;2.05;0.70;;;;;;;1.29;58.22;100445.19;1788342;79;21582;-61
2022/03/05 08:21:39;;;;;;;1.52;0.70;;;;;;;1.35;58.08;100444.67;1788519;80;21134;-60
2022/03/05 08:24:08;;;;;;;3.15;0.80;;;;;;;1.40;57.87;100437.50;1788539;80;21103;-61
2022/03/05 08:26:38;;;;;;;4.25;1.00;;;;;;;1.43;57.60;100443.98;1788307;80;21407;-62
2022/03/05 08:29:08;;;;;;;1.27;0.72;;;;;;;1.44;57.61;100452.44;1788275;80;21151;-61
2022/03/05 08:31:37;;;;;;;3.62;0.88;;;;;;;1.44;57.77;100451.94;1788464;80;21609;-60
2022/03/05 08:34:07;;;;;;;1.67;0.60;;;;;;;1.48;57.73;100446.63;1788606;80;21111;-61
2022/03/05 08:36:37;;;;;;;1.37;0.70;;;;;;;1.53;57.45;100449.77;1788274;80;21523;-61
2022/03/05 08:39:07;;;;;;;1.55;0.90;;;;;;;1.55;57.33;100455.88;1788183;80;21189;-61
2022/03/05 08:41:37;;;;;;;1.50;0.88;;;;;;;1.56;57.19;100455.38;1788180;80;21111;-60
2022/03/05 08:44:07;;;;;;;1.00;0.78;;;;;;;1.56;56.84;100458.94;1788502;80;21146;-61
2022/03/05 08:46:37;;;;;;;4.45;1.27;;;;;;;1.55;56.84;100462.62;1788316;80;21159;-62
2022/03/05 08:49:07;;;;;;;4.67;0.98;;;;;;;1.54;57.17;100455.52;1788457;79;21119;-61
2022/03/05 08:51:38;;;;;;;1.50;0.70;;;;;;;1.58;57.41;100453.39;1788261;80;21079;-61
2022/03/05 08:54:08;;;;;;;2.02;0.70;;;;;;;1.66;57.12;100461.66;1788500;79;21143;-61
2022/03/05 08:56:38;;;;;;;1.95;0.90;;;;;;;1.75;56.70;100464.02;1788339;80;21115;-60
2022/03/05 08:59:09;;;;;;;3.67;0.78;;;;;;;1.80;56.75;100470.70;1788310;79;21165;-61
2022/03/05 09:01:38;;;;;;;3.90;1.42;;;;;;;1.84;56.70;100472.62;1788300;80;21163;-63
2022/03/05 09:04:10;;;;;;;1.87;0.75;;;;;;;1.86;56.75;100471.50;1788302;80;21546;-61
2022/03/05 09:06:39;;;;;;;0.90;0.60;;;;;;;1.94;56.62;100482.95;1779696;80;21193;-61
2022/03/05 09:09:08;;;;;;;1.72;0.80;;;;;;;1.99;56.23;100481.21;1774536;80;21115;-61
2022/03/05 09:11:39;;;;;;;2.92;0.90;;;;;;;1.98;55.99;100488.47;1774514;81;21112;-62
2022/03/05 09:14:08;;;;;;;2.08;0.80;;;;;;;1.96;56.14;100486.40;1774534;80;21127;-62
2022/03/05 09:16:38;;;;;;;1.77;0.78;;;;;;;1.94;56.33;100487.00;1775084;81;21116;-61
2022/03/05 09:19:07;;;;;;;1.65;0.80;;;;;;;1.96;56.29;100487.75;1774789;80;21198;-61
2022/03/05 09:21:37;;;;;;;1.37;0.80;;;;;;;1.97;56.32;100487.25;1774637;79;21539;-61
2022/03/05 09:24:07;;;;;;;3.33;0.78;;;;;;;2.00;56.28;100491.02;1774712;81;21105;-60
2022/03/05 09:26:37;;;;;;;3.67;0.80;;;;;;;2.04;56.16;100498.71;1774448;81;21542;-60
2022/03/05 09:29:07;;;;;;;1.30;0.85;;;;;;;2.04;56.22;100492.45;1774421;81;21152;-60
2022/03/05 09:31:39;;;;;;;1.52;0.90;;;;;;;2.07;56.19;100501.63;1774628;81;21167;-62
2022/03/05 09:34:10;;;;;;;3.10;2.17;;;;;;;2.06;55.92;100499.42;1774547;80;21159;-62
2022/03/05 09:36:40;;;;;;;1.52;1.00;;;;;;;2.06;55.79;100503.97;1763980;81;21511;-60
2022/03/05 09:39:10;;;;;;;1.70;0.98;;;;;;;2.05;55.81;100511.23;1774821;81;21119;-61
2022/03/05 09:41:41;;;;;;;1.72;0.65;;;;;;;2.04;55.76;100501.91;1774510;80;21123;-60
2022/03/05 09:44:10;;;;;;;1.50;0.78;;;;;;;2.02;55.81;100507.45;1774672;81;21583;-62
2022/03/05 09:46:41;;;;;;;1.32;0.60;;;;;;;1.99;55.78;100502.83;1774624;81;21108;-63
2022/03/05 09:49:10;;;;;;;2.98;1.00;;;;;;;1.95;55.81;100506.30;1774609;81;21159;-60
2022/03/05 09:51:39;;;;;;;1.10;0.70;;;;;;;1.92;55.85;100510.61;1774496;79;21795;-62
2022/03/05 09:54:08;;;;;;;2.47;0.78;;;;;;;1.88;55.87;100507.33;1774630;80;22043;-61
2022/03/05 09:56:39;;;;;;;1.07;0.78;;;;;;;1.87;55.94;100506.97;1701873;84;21171;-61
2022/03/05 09:59:10;;;;;;;1.52;1.02;;;;;;;1.87;56.07;100512.88;1701893;84;21139;-61
2022/03/05 10:01:39;;;;;;;1.60;0.90;;;;;;;1.81;56.02;100514.28;1627799;88;21664;-62
2022/03/05 10:04:21;;;;;;;1.30;0.80;;;;;;;1.82;56.34;100508.38;1701814;84;21599;-61
2022/03/05 10:07:15;;;;;;;3.80;0.90;;;;;;;1.81;56.41;100514.78;1700388;84;21302;-61
2022/03/05 10:09:47;;;;;;;2.15;0.93;;;;;;;1.83;56.43;100511.44;1652757;86;21143;-62
2022/03/05 10:12:34;;;;;;;2.90;0.98;;;;;;;1.85;56.44;100516.21;1648478;86;21591;-61
2022/03/05 10:15:17;;;;;;;1.57;0.90;;;;;;;1.86;56.54;100508.47;1682447;83;21197;-60
2022/03/05 10:17:59;;;;;;;7.03;0.82;;;;;;;1.87;56.43;100519.13;1784756;80;21550;-62
2022/03/05 10:20:31;;;;;;;2.40;1.00;;;;;;;1.86;56.30;100516.56;1784848;80;21628;-61
2022/03/05 10:23:12;;;;;;;1.40;0.78;;;;;;;1.85;56.59;100514.36;1784829;80;21609;-61
2022/03/05 10:25:55;;;;;;;1.00;0.80;;;;;;;1.88;56.53;100518.14;1784960;80;21122;-61
2022/03/05 10:28:27;;;;;;;1.22;0.78;;;;;;;1.88;56.51;100518.63;1785061;80;21127;-62
2022/03/05 10:31:04;;;;;;;2.47;0.85;;;;;;;1.89;56.53;100522.55;1785049;80;21127;-61
2022/03/05 10:33:37;;;;;;;1.92;0.90;;;;;;;1.91;56.55;100521.06;1784777;80;21091;-61
2022/03/05 10:36:23;;;;;;;1.92;0.93;;;;;;;1.92;56.63;100514.66;1784807;80;21535;-61
2022/03/05 10:39:02;;;;;;;1.87;1.10;;;;;;;1.93;56.63;100513.66;1785056;80;21103;-62
2022/03/05 10:41:40;;;;;;;6.33;1.17;;;;;;;1.93;56.62;100507.41;1785094;80;21154;-61
2022/03/05 10:44:18;;;;;;;21.87;1.70;;;;;;;1.92;56.76;100507.91;1784944;80;21178;-60
2022/03/05 10:47:01;;;;;;;1.25;0.72;;;;;;;1.97;56.89;100507.02;1784822;80;21140;-61
2022/03/05 10:49:38;;;;;;;2.58;1.00;;;;;;;2.01;56.82;100510.30;1785050;80;21142;-60
2022/03/05 10:52:10;;;;;;;2.98;1.00;;;;;;;1.99;56.66;100506.88;1784860;80;21115;-61
2022/03/05 10:54:41;;;;;;;8.60;1.30;;;;;;;1.96;56.57;100510.72;1785139;80;21146;-61
2022/03/05 10:57:18;;;;;;;6.22;1.15;;;;;;;1.98;56.71;100506.52;1785187;80;21166;-60
2022/03/05 10:59:53;;;;;;;2.22;0.98;;;;;;;1.99;56.94;100504.17;1747285;82;21118;-61
2022/03/05 11:02:23;;;;;;;7.87;1.32;;;;;;;2.02;56.85;100506.11;1783507;80;21115;-61
2022/03/05 11:04:52;;;;;;;3.45;1.07;;;;;;;2.02;56.91;100502.05;1784860;79;21171;-60
2022/03/05 11:07:23;;;;;;;1.75;1.22;;;;;;;2.03;56.81;100511.02;1784979;80;21139;-61
2022/03/05 11:09:54;;;;;;;1.98;1.00;;;;;;;2.03;56.88;100508.31;1775228;80;21159;-61
2022/03/05 11:12:25;;;;;;;1.75;1.00;;;;;;;2.03;56.86;100515.92;1774790;81;21575;-60
2022/03/05 11:14:56;;;;;;;4.83;1.10;;;;;;;2.03;56.65;100511.87;1731089;82;21124;-59
2022/03/05 11:17:26;;;;;;;2.12;1.27;;;;;;;2.03;56.41;100513.22;1731267;83;21225;-60
2022/03/05 11:19:55;;;;;;;1.55;0.90;;;;;;;2.01;56.47;100509.80;1655003;86;21179;-60
2022/03/05 11:22:25;;;;;;;2.33;1.05;;;;;;;2.00;56.50;100514.84;1707422;83;21191;-62
2022/03/05 11:24:54;;;;;;;5.72;1.50;;;;;;;2.01;56.56;100510.30;1654680;86;21603;-61
2022/03/05 11:27:24;;;;;;;3.42;1.10;;;;;;;2.03;56.54;100509.16;1731043;83;21150;-62
2022/03/05 11:29:58;;;;;;;3.00;1.37;;;;;;;2.03;56.63;100510.52;1731087;83;21154;-62
2022/03/05 11:32:29;;;;;;;2.33;1.10;;;;;;;2.07;56.55;100504.33;1667296;84;21570;-61
2022/03/05 11:34:59;;;;;;;2.17;1.12;;;;;;;2.09;56.34;100503.20;1774573;80;21100;-61
2022/03/05 11:37:35;;;;;;;2.60;1.12;;;;;;;2.11;56.23;100497.16;1774772;81;21111;-62
2022/03/05 11:40:06;;;;;;;2.45;1.40;;;;;;;2.12;56.13;100497.50;1774524;81;21103;-62
2022/03/05 11:42:38;;;;;;;2.60;1.10;;;;;;;2.15;55.92;100492.31;1774663;80;21631;-61
2022/03/05 11:45:30;;;;;;;2.27;1.30;;;;;;;2.14;55.69;100505.48;1774560;81;21527;-59
2022/03/05 11:48:26;;;;;;;4.40;1.40;;;;;;;2.15;55.64;100505.33;1774758;81;21151;-63
2022/03/05 11:50:59;;;;;;;4.33;1.50;;;;;;;2.11;55.46;100502.56;1774541;79;21120;-61
2022/03/05 11:53:28;;;;;;;16.23;1.98;;;;;;;2.11;55.49;100505.26;1774731;81;21143;-62
2022/03/05 11:55:58;;;;;;;5.47;1.62;;;;;;;2.10;55.60;100504.05;1774530;81;21139;-61
2022/03/05 11:58:31;;;;;;;2.37;1.47;;;;;;;2.12;55.56;100498.86;1759077;81;21147;-61